Time;durP1;ratioP1;P1;durP2;ratioP2;P2;SDS_P1;SDS_P2;PMS_P1;PMS_P2;Temp;Humidity;BMP_temperature;BMP_pressure;BME280_temperature;BME280_humidity;BME280_pressure;Samples;Min_cycle;Max_cycle;Signal;HPM_P1;HPM_P2
2022/11/10 00:01:55;;;;;;;6.65;2.13;;;9.20;99.90;;;;;;4658468;28;9999880;-70
2022/11/10 00:04:20;;;;;;;7.00;2.00;;;9.20;99.90;;;;;;4996094;28;20033;-70
2022/11/10 00:06:46;;;;;;;7.30;2.40;;;9.20;99.90;;;;;;4995425;28;20037;-69
2022/11/10 00:09:13;;;;;;;9.30;2.25;;;9.10;99.90;;;;;;4995139;28;20025;-70
2022/11/10 00:11:38;;;;;;;8.77;2.30;;;9.20;99.90;;;;;;5000381;28;20047;-70
2022/11/10 00:17:00;;;;;;;9.15;2.30;;;9.10;99.90;;;;;;4995937;28;20036;-70
2022/11/10 00:19:33;;;;;;;8.23;2.08;;;9.10;99.90;;;;;;4997985;28;20156;-69
2022/11/10 00:22:00;;;;;;;8.60;2.53;;;9.10;99.90;;;;;;4993238;28;20113;-70
2022/11/10 00:24:26;;;;;;;6.65;2.00;;;9.10;99.90;;;;;;4994125;28;20053;-70
2022/11/10 00:26:52;;;;;;;11.05;2.83;;;9.10;99.90;;;;;;4998515;28;20038;-70
2022/11/10 00:29:18;;;;;;;13.30;2.20;;;9.10;99.90;;;;;;5005651;28;20037;-70
2022/11/10 00:31:44;;;;;;;6.85;2.20;;;9.10;99.90;;;;;;5003764;28;20065;-70
2022/11/10 00:34:15;;;;;;;6.88;2.03;;;9.10;99.90;;;;;;4991047;28;20060;-71
2022/11/10 00:36:42;;;;;;;7.57;2.40;;;9.10;99.90;;;;;;5000722;28;20025;-70
2022/11/10 00:39:08;;;;;;;7.60;2.20;;;9.10;99.90;;;;;;4995293;28;20095;-69
2022/11/10 00:41:33;;;;;;;9.18;2.60;;;9.10;99.90;;;;;;5005030;28;20469;-70
2022/11/10 00:43:59;;;;;;;7.50;2.60;;;9.00;99.90;;;;;;4998215;28;20026;-70
2022/11/10 00:46:25;;;;;;;8.57;2.50;;;9.00;99.90;;;;;;5003397;28;20122;-70
2022/11/10 00:48:51;;;;;;;8.85;2.42;;;8.90;99.90;;;;;;4998010;28;20121;-70
2022/11/10 00:51:26;;;;;;;4.63;1.92;;;8.90;99.90;;;;;;5001879;28;20033;-70
2022/11/10 00:53:53;;;;;;;6.65;2.20;;;8.90;99.90;;;;;;5003701;28;20088;-69
2022/11/10 00:56:19;;;;;;;3.80;1.98;;;8.90;99.90;;;;;;4989148;28;20036;-70
2022/11/10 00:58:45;;;;;;;6.95;2.10;;;8.90;99.90;;;;;;5011061;28;20026;-70
2022/11/10 01:01:11;;;;;;;9.40;2.63;;;8.90;99.90;;;;;;5008487;28;20516;-70
2022/11/10 01:03:37;;;;;;;10.82;2.80;;;8.90;99.90;;;;;;4996514;28;20029;-69
2022/11/10 01:06:05;;;;;;;12.50;2.50;;;8.90;99.90;;;;;;4993268;28;20576;-70
2022/11/10 01:08:31;;;;;;;7.38;2.88;;;9.00;99.90;;;;;;5000668;28;20049;-70
2022/11/10 01:11:04;;;;;;;7.28;2.40;;;9.00;99.90;;;;;;4995829;28;20037;-70
2022/11/10 01:13:30;;;;;;;10.98;2.70;;;8.90;99.90;;;;;;4997958;28;20030;-69
2022/11/10 01:15:56;;;;;;;10.32;2.38;;;9.00;99.90;;;;;;4997207;28;20437;-70
2022/11/10 01:18:22;;;;;;;10.40;2.92;;;8.90;99.90;;;;;;5003463;28;20037;-69
2022/11/10 01:20:51;;;;;;;7.05;2.50;;;8.90;99.90;;;;;;4997518;28;20092;-69
2022/11/10 01:23:17;;;;;;;6.60;2.30;;;8.90;99.90;;;;;;5000359;28;20036;-70
2022/11/10 01:25:43;;;;;;;9.35;2.60;;;8.90;99.90;;;;;;5002307;28;22057;-70
2022/11/10 01:28:08;;;;;;;6.35;2.30;;;8.90;99.90;;;;;;5003487;28;20029;-70
2022/11/10 01:30:34;;;;;;;7.63;2.38;;;8.80;99.90;;;;;;5009961;28;20137;-70
2022/11/10 01:33:00;;;;;;;7.18;2.15;;;8.80;99.90;;;;;;5001170;28;20074;-69
2022/11/10 01:35:25;;;;;;;6.50;2.60;;;8.80;99.90;;;;;;4997867;28;20386;-70
2022/11/10 01:37:52;;;;;;;12.00;2.67;;;8.80;99.90;;;;;;4996092;28;20037;-70
2022/11/10 01:40:18;;;;;;;11.23;2.65;;;8.80;99.90;;;;;;5000201;28;20420;-70
2022/11/10 01:42:55;;;;;;;8.65;3.03;;;8.80;99.90;;;;;;4998092;28;20087;-70
2022/11/10 01:45:23;;;;;;;8.18;3.05;;;8.80;99.90;;;;;;4996728;28;20490;-70
2022/11/10 01:47:57;;;;;;;13.48;3.95;;;8.80;99.90;;;;;;5003808;28;20022;-70
2022/11/10 01:50:26;;;;;;;8.00;3.17;;;8.90;99.90;;;;;;5001580;28;20030;-69
2022/11/10 01:52:56;;;;;;;12.98;3.70;;;8.80;99.90;;;;;;5004081;28;20033;-70
2022/11/10 01:55:23;;;;;;;12.80;4.05;;;8.80;99.90;;;;;;4994746;28;20465;-70
2022/11/10 01:57:49;;;;;;;12.48;3.20;;;8.70;99.90;;;;;;4993164;28;21255;-70
2022/11/10 02:00:16;;;;;;;9.85;3.03;;;8.70;99.90;;;;;;5007602;28;20104;-70
2022/11/10 02:03:09;;;;;;;12.15;4.00;;;8.70;99.90;;;;;;5004503;28;20041;-70
2022/11/10 02:05:35;;;;;;;12.18;3.53;;;8.70;99.90;;;;;;4992603;28;20018;-70
2022/11/10 02:08:02;;;;;;;11.30;3.13;;;8.70;99.90;;;;;;5003616;28;20079;-70
2022/11/10 02:10:28;;;;;;;9.55;3.00;;;8.60;99.90;;;;;;4995109;28;20281;-69
2022/11/10 02:12:53;;;;;;;9.98;3.15;;;8.60;99.90;;;;;;5003608;28;20022;-70
2022/11/10 02:15:19;;;;;;;8.13;2.97;;;8.60;99.90;;;;;;4996440;28;20083;-70
2022/11/10 02:17:46;;;;;;;8.48;2.53;;;8.60;99.90;;;;;;5000215;28;20022;-70
2022/11/10 02:20:15;;;;;;;7.20;2.60;;;8.60;99.90;;;;;;5007345;28;20172;-70
2022/11/10 02:22:40;;;;;;;10.45;2.50;;;8.60;99.90;;;;;;4993566;28;20565;-70
2022/11/10 02:25:06;;;;;;;11.73;3.10;;;8.50;99.90;;;;;;4999211;28;20400;-69
2022/11/10 02:27:33;;;;;;;9.35;2.60;;;8.50;99.90;;;;;;4999170;28;20017;-70
2022/11/10 02:29:59;;;;;;;9.10;3.00;;;8.50;99.90;;;;;;5006025;28;20061;-70
2022/11/10 02:32:24;;;;;;;10.25;2.70;;;8.40;99.90;;;;;;5002589;28;20029;-69
2022/11/10 02:34:50;;;;;;;7.97;2.90;;;8.40;99.90;;;;;;4995159;28;20062;-69
2022/11/10 02:37:16;;;;;;;8.52;2.95;;;8.40;99.90;;;;;;4994576;28;20029;-70
2022/11/10 02:39:41;;;;;;;8.88;2.92;;;8.40;99.90;;;;;;4995280;28;20041;-70
2022/11/10 02:42:09;;;;;;;9.55;2.67;;;8.30;99.90;;;;;;5005865;28;20541;-69
2022/11/10 02:44:36;;;;;;;10.73;2.85;;;8.30;99.90;;;;;;4999841;28;20057;-70
2022/11/10 02:47:02;;;;;;;7.30;2.75;;;8.30;99.90;;;;;;4995156;28;20037;-69
2022/11/10 02:49:28;;;;;;;12.23;3.28;;;8.30;99.90;;;;;;5004756;28;20080;-69
2022/11/10 02:51:53;;;;;;;12.30;3.15;;;8.30;99.90;;;;;;5002982;28;20355;-70
2022/11/10 02:54:19;;;;;;;6.63;2.47;;;8.20;99.90;;;;;;5013094;28;20029;-70
2022/11/10 02:56:45;;;;;;;14.40;3.40;;;8.30;99.90;;;;;;5010255;28;20041;-70
2022/11/10 02:59:11;;;;;;;8.27;2.70;;;8.30;99.90;;;;;;5020146;28;20559;-70
2022/11/10 03:01:37;;;;;;;11.18;2.95;;;8.30;99.90;;;;;;5020263;28;20028;-70
2022/11/10 03:04:04;;;;;;;8.73;2.50;;;8.30;99.90;;;;;;5017720;28;20108;-70
2022/11/10 03:06:30;;;;;;;7.03;2.65;;;8.30;99.90;;;;;;5006124;28;20358;-70
2022/11/10 03:08:56;;;;;;;9.38;3.00;;;8.30;99.90;;;;;;5005491;28;20095;-70
2022/11/10 03:11:21;;;;;;;11.82;3.10;;;8.30;99.90;;;;;;5012594;28;20029;-70
2022/11/10 03:13:47;;;;;;;12.55;2.83;;;8.30;99.90;;;;;;5017674;28;20486;-70
2022/11/10 03:16:13;;;;;;;5.75;2.40;;;8.30;99.90;;;;;;5008259;28;20029;-70
2022/11/10 03:18:38;;;;;;;11.05;2.75;;;8.30;99.90;;;;;;5015310;28;20596;-70
2022/11/10 03:21:04;;;;;;;11.40;3.00;;;8.30;99.90;;;;;;5015388;28;20024;-70
2022/11/10 03:23:31;;;;;;;9.35;2.97;;;8.30;99.90;;;;;;5010785;28;20022;-70
2022/11/10 03:25:57;;;;;;;8.48;3.10;;;8.30;99.90;;;;;;5007663;28;20461;-70
2022/11/10 03:28:22;;;;;;;9.73;2.85;;;8.30;99.90;;;;;;5017699;28;20053;-69
2022/11/10 03:30:48;;;;;;;10.73;3.15;;;8.20;99.90;;;;;;5015104;28;20099;-69
2022/11/10 03:33:13;;;;;;;11.88;3.15;;;8.30;99.90;;;;;;5021808;28;20618;-70
2022/11/10 03:35:39;;;;;;;13.35;2.95;;;8.30;99.90;;;;;;5020524;28;20029;-70
2022/11/10 03:38:04;;;;;;;8.68;3.28;;;8.20;99.90;;;;;;5020270;28;20125;-70
2022/11/10 03:40:30;;;;;;;9.15;3.28;;;8.20;99.90;;;;;;5013812;28;20227;-70
2022/11/10 03:42:56;;;;;;;10.93;3.00;;;8.30;99.90;;;;;;5013903;28;20033;-70
2022/11/10 03:45:21;;;;;;;10.35;2.85;;;8.20;99.90;;;;;;5017786;28;20034;-70
2022/11/10 03:47:48;;;;;;;12.05;3.03;;;8.20;99.90;;;;;;5018666;28;20371;-70
2022/11/10 03:50:15;;;;;;;10.32;2.85;;;8.10;99.90;;;;;;5014405;28;20037;-69
2022/11/10 03:52:43;;;;;;;12.85;3.22;;;8.10;99.90;;;;;;5014162;28;20036;-70
2022/11/10 03:55:11;;;;;;;9.70;3.20;;;8.10;99.90;;;;;;5014260;28;20025;-69
2022/11/10 03:57:36;;;;;;;11.55;3.35;;;8.10;99.90;;;;;;5016266;28;20028;-69
2022/11/10 04:00:03;;;;;;;10.98;3.53;;;8.00;99.90;;;;;;5015940;28;20490;-69
2022/11/10 04:02:29;;;;;;;14.38;3.95;;;8.00;99.90;;;;;;5014453;28;20029;-69
2022/11/10 04:10:23;;;;;;;8.80;3.80;;;7.80;99.90;;;;;;5017345;28;20164;-70
2022/11/10 04:15:42;;;;;;;12.40;3.45;;;7.90;99.90;;;;;;5014265;28;20096;-69
2022/11/10 04:18:25;;;;;;;10.73;4.00;;;7.80;99.90;;;;;;5013170;28;20123;-70
2022/11/10 04:20:59;;;;;;;7.63;3.35;;;7.80;99.90;;;;;;5014134;28;20021;-70
2022/11/10 04:23:33;;;;;;;16.48;3.60;;;7.80;99.90;;;;;;5015382;28;20029;-70
2022/11/10 04:28:54;;;;;;;8.98;3.53;;;7.90;99.90;;;;;;5012936;28;20041;-70
2022/11/10 04:31:21;;;;;;;8.70;3.47;;;7.90;99.90;;;;;;5018980;28;20596;-70
2022/11/10 04:33:48;;;;;;;12.80;3.97;;;8.00;99.90;;;;;;5008544;28;20406;-70
2022/11/10 04:36:17;;;;;;;11.15;3.78;;;8.00;99.90;;;;;;5015057;28;20021;-70
2022/11/10 04:38:43;;;;;;;11.00;3.22;;;7.90;99.90;;;;;;5012826;28;20042;-69
2022/11/10 04:41:09;;;;;;;10.25;3.47;;;7.90;99.90;;;;;;5010651;28;20552;-69
2022/11/10 04:43:35;;;;;;;9.00;2.88;;;7.90;99.90;;;;;;5011740;28;20018;-69
2022/11/10 04:46:01;;;;;;;9.75;3.58;;;7.90;99.90;;;;;;5009062;28;20434;-70
2022/11/10 04:48:27;;;;;;;5.65;3.03;;;7.90;99.90;;;;;;5012514;28;20120;-69
2022/11/10 04:50:54;;;;;;;9.05;3.78;;;7.90;99.90;;;;;;5012312;28;20030;-69
2022/11/10 04:53:20;;;;;;;10.88;3.80;;;7.90;99.90;;;;;;5021771;28;20116;-70
2022/11/10 04:55:46;;;;;;;10.02;3.50;;;7.90;99.90;;;;;;5018801;28;20051;-69
2022/11/10 04:58:12;;;;;;;12.02;3.95;;;7.90;99.90;;;;;;5020659;28;20119;-69
2022/11/10 05:00:39;;;;;;;10.43;3.90;;;7.80;99.90;;;;;;5014805;28;20044;-70
2022/11/10 05:03:07;;;;;;;11.88;3.88;;;7.80;99.90;;;;;;5022455;28;20036;-69
2022/11/10 05:05:33;;;;;;;8.98;3.80;;;7.80;99.90;;;;;;5015965;28;20044;-69
2022/11/10 05:07:58;;;;;;;8.63;3.53;;;7.80;99.90;;;;;;5022586;28;20473;-69
2022/11/10 05:10:24;;;;;;;10.25;3.95;;;7.70;99.90;;;;;;5018796;28;20117;-69
2022/11/10 05:12:57;;;;;;;11.43;4.18;;;7.80;99.90;;;;;;5015323;28;20030;-69
2022/11/10 05:15:24;;;;;;;12.20;4.38;;;7.80;99.90;;;;;;5012070;28;20662;-69
2022/11/10 05:17:51;;;;;;;16.90;4.43;;;7.80;99.90;;;;;;5022249;28;20029;-69
2022/11/10 05:20:17;;;;;;;13.93;4.50;;;7.70;99.90;;;;;;5016147;28;20029;-69
2022/11/10 05:22:45;;;;;;;12.90;5.22;;;7.80;99.90;;;;;;5014128;28;20100;-70
2022/11/10 05:25:11;;;;;;;13.68;4.50;;;7.80;99.90;;;;;;5013163;28;20559;-69
2022/11/10 05:27:37;;;;;;;14.93;5.05;;;7.80;99.90;;;;;;5018843;28;20056;-70
2022/11/10 05:30:03;;;;;;;12.18;4.75;;;7.70;99.90;;;;;;5015452;28;20513;-70
2022/11/10 05:32:29;;;;;;;14.75;4.85;;;7.80;99.90;;;;;;5023928;28;20252;-70
2022/11/10 05:34:54;;;;;;;15.82;5.53;;;7.80;99.90;;;;;;5019483;28;20021;-70
2022/11/10 05:37:20;;;;;;;12.20;5.57;;;7.80;99.90;;;;;;5012304;28;20052;-70
2022/11/10 05:39:45;;;;;;;11.60;5.38;;;7.80;99.90;;;;;;5012111;28;20033;-70
2022/11/10 05:42:11;;;;;;;14.15;5.85;;;7.80;99.90;;;;;;5013804;28;20025;-70
2022/11/10 05:44:37;;;;;;;16.17;5.78;;;7.80;99.90;;;;;;5016588;28;20031;-70
2022/11/10 05:47:02;;;;;;;14.02;5.90;;;7.70;99.90;;;;;;5010694;28;20038;-70
2022/11/10 05:49:28;;;;;;;15.73;5.63;;;7.70;99.90;;;;;;5014294;28;20022;-70
2022/11/10 05:51:53;;;;;;;14.63;5.20;;;7.70;99.90;;;;;;5017778;28;20424;-69
2022/11/10 05:54:19;;;;;;;18.83;5.90;;;7.70;99.90;;;;;;5005976;28;20029;-69
2022/11/10 05:56:45;;;;;;;16.75;6.40;;;7.60;99.90;;;;;;5012206;28;20033;-69
2022/11/10 05:59:10;;;;;;;13.77;6.28;;;7.60;99.90;;;;;;5008391;28;20026;-69
2022/11/10 06:01:36;;;;;;;15.30;6.40;;;7.50;99.90;;;;;;5015682;28;20373;-69
2022/11/10 06:04:01;;;;;;;13.52;5.93;;;7.50;99.90;;;;;;5012725;28;20064;-69
2022/11/10 06:06:27;;;;;;;20.60;6.00;;;7.50;99.90;;;;;;5017590;28;20188;-69
2022/11/10 06:08:55;;;;;;;12.52;5.88;;;7.60;99.90;;;;;;5011020;28;20116;-69
2022/11/10 06:11:20;;;;;;;12.93;5.57;;;7.60;99.90;;;;;;5011790;28;20038;-69
2022/11/10 06:13:46;;;;;;;15.43;5.97;;;7.50;99.90;;;;;;5012451;28;20422;-69
2022/11/10 06:16:11;;;;;;;12.93;6.20;;;7.60;99.90;;;;;;5014833;28;20032;-70
2022/11/10 06:18:37;;;;;;;17.42;6.35;;;7.50;99.90;;;;;;5018199;28;20042;-69
2022/11/10 06:21:03;;;;;;;14.23;5.80;;;7.40;99.90;;;;;;5020965;28;20040;-69
2022/11/10 06:23:29;;;;;;;14.55;5.75;;;7.40;99.90;;;;;;5014061;28;20021;-69
2022/11/10 06:25:54;;;;;;;16.98;5.90;;;7.40;99.90;;;;;;5016614;28;20028;-69
2022/11/10 06:28:20;;;;;;;13.07;6.07;;;7.40;99.90;;;;;;5015913;28;20091;-69
2022/11/10 06:30:45;;;;;;;15.77;5.88;;;7.40;99.90;;;;;;5004228;28;20042;-70
2022/11/10 06:33:11;;;;;;;14.75;6.82;;;7.30;99.90;;;;;;5009088;28;20129;-69
2022/11/10 06:35:37;;;;;;;13.57;6.28;;;7.40;99.90;;;;;;5004062;28;20101;-69
2022/11/10 06:38:11;;;;;;;15.90;6.10;;;7.40;99.90;;;;;;5010357;28;20061;-69
2022/11/10 06:40:37;;;;;;;17.58;6.38;;;7.40;99.90;;;;;;5015180;28;20053;-69
2022/11/10 06:43:03;;;;;;;12.57;5.72;;;7.40;99.90;;;;;;5015097;28;20120;-69
2022/11/10 06:45:28;;;;;;;14.68;6.25;;;7.40;99.90;;;;;;5010346;28;20033;-69
2022/11/10 06:48:12;;;;;;;15.82;6.20;;;7.40;99.90;;;;;;5011283;28;20170;-69
2022/11/10 06:50:38;;;;;;;19.65;6.72;;;7.40;99.90;;;;;;5015120;28;20101;-69
2022/11/10 06:53:04;;;;;;;15.43;6.47;;;7.40;99.90;;;;;;4995836;28;20025;-69
2022/11/10 06:55:30;;;;;;;16.48;6.43;;;7.40;99.90;;;;;;5003747;28;20437;-69
2022/11/10 06:57:57;;;;;;;15.70;6.22;;;7.40;99.90;;;;;;5017706;28;20537;-70
2022/11/10 07:00:23;;;;;;;17.40;6.80;;;7.40;99.90;;;;;;5019024;28;20292;-70
2022/11/10 07:03:01;;;;;;;16.08;6.72;;;7.40;99.90;;;;;;5025288;28;20039;-70
2022/11/10 07:05:26;;;;;;;15.45;7.00;;;7.40;99.90;;;;;;5013729;28;20509;-69
2022/11/10 07:07:52;;;;;;;19.38;6.45;;;7.40;99.90;;;;;;5018918;28;20032;-69
2022/11/10 07:10:18;;;;;;;15.82;7.13;;;7.50;99.90;;;;;;5020972;28;20037;-69
2022/11/10 07:12:43;;;;;;;18.08;6.70;;;7.50;99.90;;;;;;5013351;28;20036;-69
2022/11/10 07:15:09;;;;;;;13.25;5.53;;;7.50;99.90;;;;;;5017249;28;20026;-69
2022/11/10 07:17:39;;;;;;;12.40;6.15;;;7.50;99.90;;;;;;5009149;28;20040;-69
2022/11/10 07:20:06;;;;;;;20.25;10.02;;;7.60;99.90;;;;;;5015139;28;20038;-69
2022/11/10 07:22:31;;;;;;;16.83;8.38;;;7.60;99.90;;;;;;5012628;28;20066;-69
2022/11/10 07:24:58;;;;;;;17.15;8.32;;;7.60;99.90;;;;;;5010788;28;20531;-69
2022/11/10 07:27:23;;;;;;;16.45;8.40;;;7.60;99.90;;;;;;5020874;28;20378;-69
2022/11/10 07:29:49;;;;;;;22.73;7.63;;;7.60;99.90;;;;;;5015647;28;20050;-69
2022/11/10 07:32:15;;;;;;;18.58;10.50;;;7.60;99.90;;;;;;5012591;28;20038;-69
2022/11/10 07:34:40;;;;;;;17.45;9.18;;;7.60;99.90;;;;;;5000574;28;20022;-69
2022/11/10 07:37:06;;;;;;;19.25;8.52;;;7.70;99.90;;;;;;5004608;28;20022;-70
2022/11/10 07:39:31;;;;;;;16.67;8.88;;;7.70;99.90;;;;;;5025378;28;20032;-69
2022/11/10 07:41:57;;;;;;;16.92;8.43;;;7.70;99.90;;;;;;5017284;28;20034;-69
2022/11/10 07:44:23;;;;;;;22.20;9.57;;;7.70;99.90;;;;;;5006402;28;20449;-70
2022/11/10 07:46:49;;;;;;;25.75;7.85;;;7.80;99.90;;;;;;5013183;28;20030;-70
2022/11/10 07:49:14;;;;;;;17.13;6.63;;;7.80;99.90;;;;;;5016429;28;20421;-69
2022/11/10 07:51:41;;;;;;;20.83;7.35;;;7.90;99.90;;;;;;5013043;28;20034;-70
2022/11/10 07:54:07;;;;;;;17.98;7.10;;;7.90;99.90;;;;;;5012048;28;20106;-69
2022/11/10 07:56:33;;;;;;;19.58;6.82;;;7.90;99.90;;;;;;5020940;28;20037;-70
2022/11/10 07:58:58;;;;;;;19.73;6.32;;;7.90;99.90;;;;;;5006887;28;20128;-69
2022/11/10 08:01:24;;;;;;;20.98;6.43;;;8.00;99.90;;;;;;5014552;28;20025;-70
2022/11/10 08:03:49;;;;;;;17.88;7.50;;;8.00;99.90;;;;;;5018801;28;20401;-70
2022/11/10 08:06:15;;;;;;;19.15;7.90;;;7.90;99.90;;;;;;5014390;28;20319;-70
2022/11/10 08:08:41;;;;;;;19.42;8.43;;;8.00;99.90;;;;;;5005160;28;20029;-69
2022/11/10 08:11:06;;;;;;;17.77;7.80;;;8.20;99.90;;;;;;5009395;28;20401;-69
2022/11/10 08:13:32;;;;;;;17.10;7.38;;;8.30;99.90;;;;;;5022642;28;20048;-70
2022/11/10 08:15:58;;;;;;;19.65;6.95;;;8.40;99.90;;;;;;5030437;28;20033;-70
2022/11/10 08:18:24;;;;;;;15.43;7.03;;;8.60;99.90;;;;;;5018182;28;20137;-70
2022/11/10 08:20:51;;;;;;;15.85;7.63;;;8.60;99.90;;;;;;5019849;28;20033;-70
2022/11/10 08:23:17;;;;;;;17.45;7.72;;;8.70;99.90;;;;;;5025936;28;20087;-69
2022/11/10 08:25:43;;;;;;;22.33;7.55;;;8.80;99.90;;;;;;5021804;28;20417;-69
2022/11/10 08:28:11;;;;;;;18.02;7.28;;;9.00;99.90;;;;;;5017778;28;20059;-69
2022/11/10 08:30:38;;;;;;;17.35;7.78;;;;;;;;;;5008548;28;20046;-69
2022/11/10 08:33:05;;;;;;;17.80;6.90;;;;;;;;;;5015276;28;20473;-70
2022/11/10 08:35:31;;;;;;;18.08;6.38;;;;;;;;;;5020715;28;20022;-71
2022/11/10 08:37:57;;;;;;;19.70;5.78;;;9.50;99.90;;;;;;5016944;28;20037;-70
2022/11/10 08:40:26;;;;;;;16.20;5.70;;;9.40;99.90;;;;;;5024182;28;20033;-70
2022/11/10 08:42:59;;;;;;;15.45;5.80;;;9.40;99.90;;;;;;5021550;28;20034;-70
2022/11/10 08:45:25;;;;;;;18.02;7.40;;;9.30;99.90;;;;;;5027297;28;20033;-70
2022/11/10 08:48:01;;;;;;;23.95;6.20;;;9.30;99.90;;;;;;5020069;28;20025;-70
2022/11/10 08:50:28;;;;;;;19.38;6.45;;;9.40;99.90;;;;;;5025821;28;20037;-70
2022/11/10 08:52:54;;;;;;;22.63;6.65;;;9.50;99.90;;;;;;5028965;28;20032;-70
2022/11/10 08:55:20;;;;;;;31.50;11.50;;;9.70;99.90;;;;;;5015817;28;20128;-70
2022/11/10 08:57:47;;;;;;;26.77;8.43;;;9.80;99.90;;;;;;5019988;28;20065;-70
2022/11/10 09:00:14;;;;;;;15.60;6.13;;;10.00;99.90;;;;;;5016416;28;20141;-71
2022/11/10 09:02:39;;;;;;;16.67;6.28;;;10.00;99.90;;;;;;5014809;28;20034;-70
2022/11/10 09:05:05;;;;;;;16.90;7.07;;;10.10;99.90;;;;;;5010129;28;20084;-71
2022/11/10 09:07:33;;;;;;;18.90;6.80;;;10.20;99.90;;;;;;5019602;28;20048;-71
2022/11/10 09:09:58;;;;;;;13.48;5.95;;;10.30;99.90;;;;;;5021571;28;20029;-70
2022/11/10 09:12:24;;;;;;;17.88;6.53;;;10.30;99.90;;;;;;5021130;28;20094;-70
2022/11/10 09:14:50;;;;;;;20.25;5.55;;;10.30;99.90;;;;;;5025065;28;20076;-71
2022/11/10 09:17:15;;;;;;;15.23;6.88;;;10.40;99.90;;;;;;5027908;28;20033;-70
2022/11/10 09:19:41;;;;;;;18.75;6.20;;;10.30;99.90;;;;;;5016127;28;20263;-71
2022/11/10 09:22:08;;;;;;;21.10;7.18;;;10.30;99.90;;;;;;5025043;28;20021;-71
2022/11/10 09:24:34;;;;;;;16.60;6.78;;;10.30;99.90;;;;;;5022450;28;20468;-71
2022/11/10 09:26:59;;;;;;;21.08;10.00;;;10.30;99.90;;;;;;5023973;28;20057;-71
2022/11/10 09:29:26;;;;;;;14.80;5.90;;;10.40;99.90;;;;;;4369461;28;10001989;-71
2022/11/10 09:31:51;;;;;;;13.93;5.90;;;10.40;99.90;;;;;;5040969;28;20556;-71
2022/11/10 09:34:17;;;;;;;18.67;6.35;;;10.50;99.90;;;;;;5045411;28;20036;-71
2022/11/10 09:36:43;;;;;;;18.38;5.80;;;10.60;99.90;;;;;;5043857;28;20032;-70
2022/11/10 09:39:08;;;;;;;11.57;4.60;;;10.60;99.90;;;;;;5056034;28;20473;-71
2022/11/10 09:41:39;;;;;;;17.70;5.47;;;10.60;99.90;;;;;;5055763;28;20103;-70
2022/11/10 09:44:22;;;;;;;11.95;5.38;;;10.70;99.90;;;;;;5056151;28;20032;-71
2022/11/10 09:46:57;;;;;;;20.85;5.80;;;10.80;99.90;;;;;;5051938;28;20041;-70
2022/11/10 09:49:41;;;;;;;14.55;4.75;;;10.80;99.90;;;;;;5045020;28;20040;-70
2022/11/10 09:52:07;;;;;;;;;;;10.80;99.90;;;;;;5048939;28;20052;-70
2022/11/10 09:54:46;;;;;;;15.32;5.20;;;10.90;99.90;;;;;;5059935;28;19957;-70
2022/11/10 09:57:17;;;;;;;13.65;5.00;;;10.90;99.90;;;;;;5044996;28;20481;-71
2022/11/10 09:59:44;;;;;;;15.13;4.78;;;11.00;99.90;;;;;;5045471;28;20075;-71
2022/11/10 10:02:29;;;;;;;17.67;4.88;;;11.00;99.90;;;;;;5044922;28;20658;-71
2022/11/10 10:05:06;;;;;;;15.23;4.20;;;11.00;99.90;;;;;;5010928;28;20501;-70
2022/11/10 10:08:14;;;;;;;13.32;4.88;;;11.10;99.90;;;;;;5012954;28;20436;-70
2022/11/10 10:11:12;;;;;;;12.18;4.03;;;11.20;99.90;;;;;;5007947;28;20674;-70
2022/11/10 10:14:13;;;;;;;18.63;5.00;;;11.30;99.90;;;;;;5023262;28;20025;-71
2022/11/10 10:17:01;;;;;;;17.55;4.70;;;11.40;99.90;;;;;;5012178;28;20089;-70
2022/11/10 10:19:32;;;;;;;23.25;5.45;;;11.50;99.90;;;;;;5012566;28;20025;-71
2022/11/10 10:22:17;;;;;;;11.65;4.65;;;11.60;99.90;;;;;;5021781;28;20026;-71
2022/11/10 10:24:42;;;;;;;14.07;4.82;;;11.60;99.90;;;;;;5017890;28;20106;-71
2022/11/10 10:27:14;;;;;;;12.07;4.22;;;11.50;99.90;;;;;;5009616;28;20084;-71
2022/11/10 10:29:43;;;;;;;12.80;4.50;;;11.50;99.90;;;;;;5008251;28;20128;-68
2022/11/10 10:32:12;;;;;;;18.58;6.18;;;11.40;99.90;;;;;;5006637;28;20044;-67
2022/11/10 10:34:39;;;;;;;16.92;6.55;;;11.40;99.90;;;;;;5007650;28;20026;-68
2022/11/10 10:37:15;;;;;;;19.63;5.55;;;11.40;99.90;;;;;;5017306;28;20033;-68
2022/11/10 10:39:45;;;;;;;16.73;5.80;;;11.40;99.90;;;;;;5006131;28;20030;-67
2022/11/10 10:42:30;;;;;;;20.55;5.20;;;11.40;99.90;;;;;;5010345;28;20493;-67
2022/11/10 10:45:13;;;;;;;17.00;4.85;;;11.50;99.90;;;;;;5014504;28;20104;-68
2022/11/10 10:47:39;;;;;;;16.88;4.90;;;11.60;99.90;;;;;;5015710;28;20105;-67
2022/11/10 10:50:29;;;;;;;13.10;4.22;;;11.50;99.90;;;;;;5008538;28;20452;-68
2022/11/10 10:53:18;;;;;;;15.63;4.43;;;11.50;99.90;;;;;;5007573;28;20029;-67
2022/11/10 10:56:06;;;;;;;15.88;4.82;;;11.50;99.90;;;;;;5011555;28;20029;-67
2022/11/10 10:58:35;;;;;;;14.43;4.32;;;11.60;99.90;;;;;;5012077;28;20132;-67
2022/11/10 11:01:04;;;;;;;19.05;4.65;;;;;;;;;;5019804;28;20034;-67
2022/11/10 11:03:45;;;;;;;18.45;4.32;;;11.90;99.90;;;;;;5010531;28;20030;-67
2022/11/10 11:06:13;;;;;;;17.33;4.55;;;11.80;99.90;;;;;;5008787;28;20029;-68
2022/11/10 11:08:52;;;;;;;21.90;4.95;;;11.80;99.90;;;;;;5008555;28;20036;-67
2022/11/10 11:11:24;;;;;;;16.35;4.60;;;11.80;99.90;;;;;;5009728;28;20026;-67
2022/11/10 11:13:49;;;;;;;11.45;4.40;;;11.80;99.90;;;;;;5004571;28;20389;-67
2022/11/10 11:16:15;;;;;;;16.73;4.97;;;11.80;99.90;;;;;;5010332;28;20038;-67
2022/11/10 11:18:41;;;;;;;20.50;5.57;;;11.80;99.90;;;;;;5016472;28;20142;-67
2022/11/10 11:21:12;;;;;;;20.92;7.70;;;11.80;99.90;;;;;;5012373;28;20037;-67
2022/11/10 11:23:38;;;;;;;19.98;7.28;;;11.80;99.90;;;;;;5011220;28;20470;-67
2022/11/10 11:26:31;;;;;;;15.43;6.85;;;11.70;99.90;;;;;;5014960;28;20049;-67
2022/11/10 11:29:21;;;;;;;18.58;7.20;;;11.60;99.90;;;;;;5017769;28;20523;-68
2022/11/10 11:31:57;;;;;;;21.70;7.50;;;11.60;99.90;;;;;;5007139;28;20104;-68
2022/11/10 11:34:34;;;;;;;20.90;7.18;;;11.70;99.90;;;;;;5010240;28;20107;-68
2022/11/10 11:37:07;;;;;;;21.10;7.40;;;11.60;99.90;;;;;;5011915;28;20091;-68
2022/11/10 11:39:53;;;;;;;18.98;8.65;;;11.50;99.90;;;;;;5013776;28;20030;-67
2022/11/10 11:42:30;;;;;;;25.70;10.40;;;11.40;99.90;;;;;;5009878;28;20402;-67
2022/11/10 11:45:15;;;;;;;19.80;9.23;;;11.30;99.90;;;;;;5008832;28;20113;-67
2022/11/10 11:48:18;;;;;;;19.00;7.50;;;11.20;99.90;;;;;;5016426;28;20021;-67
2022/11/10 11:50:54;;;;;;;17.50;6.57;;;11.20;99.90;;;;;;5012821;28;20474;-68
2022/11/10 11:54:06;;;;;;;18.85;6.97;;;11.30;99.90;;;;;;5016774;28;20060;-68
2022/11/10 11:56:42;;;;;;;24.38;11.23;;;11.50;99.90;;;;;;5015443;28;20026;-68
2022/11/10 11:59:07;;;;;;;20.85;6.38;;;11.60;99.90;;;;;;5017716;28;20034;-68
2022/11/10 12:01:42;;;;;;;19.17;6.18;;;11.60;99.90;;;;;;5018891;28;20018;-67
2022/11/10 12:04:42;;;;;;;23.48;6.47;;;11.70;99.90;;;;;;5015380;28;20025;-68
2022/11/10 12:07:29;;;;;;;18.25;5.70;;;11.90;99.90;;;;;;5009607;28;20872;-67
2022/11/10 12:10:27;;;;;;;21.15;6.38;;;11.90;99.90;;;;;;5017125;28;20047;-67
2022/11/10 12:13:11;;;;;;;13.25;5.10;;;11.90;99.90;;;;;;5021600;28;20531;-67
2022/11/10 12:16:18;;;;;;;11.68;4.55;;;11.90;99.90;;;;;;5016036;28;20048;-67
2022/11/10 12:18:45;;;;;;;19.35;5.25;;;12.00;99.90;;;;;;5018824;28;20033;-67
2022/11/10 12:21:30;;;;;;;20.58;5.25;;;12.10;99.90;;;;;;5017390;28;20053;-67
2022/11/10 12:24:12;;;;;;;19.50;4.85;;;12.20;99.90;;;;;;5017130;28;20505;-68
2022/11/10 12:26:47;;;;;;;12.48;4.65;;;12.20;99.90;;;;;;5016618;28;20040;-68
2022/11/10 12:29:37;;;;;;;16.85;4.25;;;12.30;99.90;;;;;;5014367;28;20088;-68
2022/11/10 12:32:31;;;;;;;20.58;4.07;;;12.50;99.90;;;;;;5017903;28;20212;-68
2022/11/10 12:35:04;;;;;;;12.60;4.18;;;12.50;99.90;;;;;;5007503;28;20029;-68
2022/11/10 12:37:37;;;;;;;10.45;3.65;;;12.60;99.90;;;;;;5018066;28;20052;-67
2022/11/10 12:40:19;;;;;;;16.67;4.22;;;12.70;99.90;;;;;;5023614;28;20073;-67
2022/11/10 12:42:52;;;;;;;17.35;3.90;;;12.70;99.90;;;;;;5010167;28;20796;-67
2022/11/10 12:45:24;;;;;;;11.43;3.38;;;12.70;99.90;;;;;;5015271;28;20104;-67
2022/11/10 12:47:51;;;;;;;15.52;3.50;;;12.70;99.90;;;;;;5014066;28;20037;-68
2022/11/10 12:50:59;;;;;;;12.30;3.30;;;12.70;99.90;;;;;;5019350;28;20486;-68
2022/11/10 12:53:29;;;;;;;19.75;4.38;;;12.70;99.90;;;;;;4320429;28;10001438;-67
2022/11/10 12:55:59;;;;;;;13.00;3.90;;;12.60;99.90;;;;;;5014612;28;20026;-68
2022/11/10 12:58:25;;;;;;;11.82;3.58;;;12.70;99.90;;;;;;5018088;28;20042;-68
2022/11/10 13:01:00;;;;;;;14.38;3.03;;;12.80;99.90;;;;;;5014444;28;20030;-69
2022/11/10 13:03:32;;;;;;;18.08;3.30;;;12.90;99.90;;;;;;5003081;28;20026;-70
2022/11/10 13:06:04;;;;;;;18.33;3.70;;;12.80;99.90;;;;;;5010531;28;20043;-68
2022/11/10 13:08:45;;;;;;;14.13;3.42;;;12.80;99.90;;;;;;5014961;28;20026;-69
2022/11/10 13:11:11;;;;;;;10.60;3.17;;;12.80;99.90;;;;;;5013973;28;20036;-69
2022/11/10 13:13:43;;;;;;;12.40;3.53;;;12.90;99.90;;;;;;5013231;28;20030;-68
2022/11/10 13:16:09;;;;;;;14.00;2.88;;;12.70;99.90;;;;;;5005219;28;20030;-67